Time;durP1;ratioP1;P1;durP2;ratioP2;P2;SDS_P1;SDS_P2;PMS_P1;PMS_P2;Temp;Humidity;BMP_temperature;BMP_pressure;BME280_temperature;BME280_humidity;BME280_pressure;Samples;Min_cycle;Max_cycle;Signal;HPM_P1;HPM_P2
2022/04/04 00:00:17;;;;;;;0.08;0.08;;;;;;;;;;5009184;28;20060;-77
2022/04/04 00:02:45;;;;;;;0.73;0.15;;;;;;;;;;5035239;28;20029;-76
2022/04/04 00:05:11;;;;;;;0.17;0.17;;;;;;;;;;5032102;28;20033;-77
2022/04/04 00:07:37;;;;;;;0.10;0.10;;;;;;;;;;5035093;28;20079;-77
2022/04/04 00:10:03;;;;;;;1.00;0.98;;;;;;;;;;5034701;28;20021;-78
2022/04/04 00:12:28;;;;;;;0.00;0.00;;;;;;;;;;5036429;28;20120;-76
2022/04/04 00:14:54;;;;;;;0.30;0.30;;;;;;;;;;5034538;28;20088;-76
2022/04/04 00:17:28;;;;;;;0.20;0.20;;;;;;;;;;5034688;28;20346;-76
2022/04/04 00:19:56;;;;;;;0.45;0.45;;;;;;;;;;5031286;28;20021;-77
2022/04/04 00:22:25;;;;;;;1.15;1.02;;;;;;;;;;5012000;28;20036;-77
2022/04/04 00:24:50;;;;;;;0.15;0.15;;;;;;;;;;5017320;28;20048;-77
2022/04/04 00:27:15;;;;;;;0.52;0.52;;;;;;;;;;5028837;28;20029;-77
2022/04/04 00:29:41;;;;;;;0.00;0.00;;;;;;;;;;5034300;28;20029;-77
2022/04/04 00:32:07;;;;;;;0.20;0.20;;;;;;;;;;5035024;28;20087;-77
2022/04/04 00:34:34;;;;;;;0.52;0.45;;;;;;;;;;5034303;28;20098;-77
2022/04/04 00:37:02;;;;;;;0.25;0.25;;;;;;;;;;5012653;28;20037;-76
2022/04/04 00:39:27;;;;;;;0.70;0.70;;;;;;;;;;5032929;28;20025;-77
2022/04/04 00:41:53;;;;;;;0.00;0.00;;;;;;;;;;5017257;28;20112;-77
2022/04/04 00:44:18;;;;;;;0.17;0.17;;;;;;;;;;5034015;28;20584;-77
2022/04/04 00:46:46;;;;;;;0.80;0.70;;;;;;;;;;5032395;28;20440;-77
2022/04/04 00:49:11;;;;;;;3.13;0.30;;;;;;;;;;5034323;28;20040;-77
2022/04/04 00:51:37;;;;;;;0.10;0.10;;;;;;;;;;5030335;28;20493;-76
2022/04/04 00:54:03;;;;;;;0.65;0.65;;;;;;;;;;5033991;28;20040;-77
2022/04/04 00:56:32;;;;;;;0.85;0.85;;;;;;;;;;5033767;28;20025;-77
2022/04/04 00:58:58;;;;;;;0.25;0.25;;;;;;;;;;5012605;28;20013;-76
2022/04/04 01:01:32;;;;;;;1.77;0.30;;;;;;;;;;5033812;28;20382;-77
2022/04/04 01:03:58;;;;;;;0.00;0.00;;;;;;;;;;5018019;28;20041;-77
2022/04/04 01:06:23;;;;;;;0.35;0.35;;;;;;;;;;5026298;28;20025;-77
2022/04/04 01:08:52;;;;;;;0.47;0.47;;;;;;;;;;5015663;28;20021;-77
2022/04/04 01:11:20;;;;;;;0.10;0.10;;;;;;;;;;5016666;28;20124;-77
2022/04/04 01:13:47;;;;;;;0.22;0.20;;;;;;;;;;5016339;28;20041;-77
2022/04/04 01:16:12;;;;;;;0.80;0.55;;;;;;;;;;5016258;28;20033;-77
2022/04/04 01:18:38;;;;;;;0.45;0.45;;;;;;;;;;5016442;28;20028;-77
2022/04/04 01:21:06;;;;;;;0.20;0.20;;;;;;;;;;5032130;28;20021;-77
2022/04/04 01:23:40;;;;;;;0.08;0.08;;;;;;;;;;5016701;28;20034;-77
2022/04/04 01:26:26;;;;;;;0.20;0.20;;;;;;;;;;5015998;28;20405;-77
2022/04/04 01:28:51;;;;;;;0.28;0.28;;;;;;;;;;5022000;28;20061;-77
2022/04/04 01:31:16;;;;;;;0.77;0.60;;;;;;;;;;5033492;28;20144;-77
2022/04/04 01:33:42;;;;;;;0.60;0.60;;;;;;;;;;5015986;28;20025;-76
2022/04/04 01:36:08;;;;;;;0.40;0.40;;;;;;;;;;5029748;28;20021;-78
2022/04/04 01:38:33;;;;;;;0.50;0.40;;;;;;;;;;5033918;28;20358;-77
2022/04/04 01:40:59;;;;;;;0.13;0.13;;;;;;;;;;5033392;28;20029;-76
2022/04/04 01:43:24;;;;;;;0.80;0.70;;;;;;;;;;5032369;28;20102;-76
2022/04/04 01:48:37;;;;;;;1.45;1.35;;;;;;;;;;5033666;28;20099;-76
2022/04/04 01:51:02;;;;;;;0.63;0.40;;;;;;;;;;5015973;28;20210;-76
2022/04/04 01:53:29;;;;;;;0.10;0.10;;;;;;;;;;5016375;28;20485;-77
2022/04/04 01:55:58;;;;;;;1.30;1.17;;;;;;;;;;5033826;28;20021;-76
2022/04/04 01:58:24;;;;;;;0.15;0.15;;;;;;;;;;5031784;28;20030;-76
2022/04/04 02:00:52;;;;;;;0.57;0.57;;;;;;;;;;5035625;28;20052;-77
2022/04/04 02:03:17;;;;;;;0.47;0.47;;;;;;;;;;5015834;28;20175;-75
2022/04/04 02:05:42;;;;;;;0.10;0.10;;;;;;;;;;5029945;28;20108;-77
2022/04/04 02:08:08;;;;;;;0.10;0.10;;;;;;;;;;5027086;28;20025;-77
2022/04/04 02:10:34;;;;;;;0.32;0.32;;;;;;;;;;5033099;28;20080;-76
2022/04/04 02:12:59;;;;;;;0.38;0.35;;;;;;;;;;5016301;28;20049;-77
2022/04/04 02:15:27;;;;;;;0.40;0.40;;;;;;;;;;5037464;28;20036;-76
2022/04/04 02:17:52;;;;;;;0.45;0.45;;;;;;;;;;5037368;28;20036;-76
2022/04/04 02:20:20;;;;;;;0.38;0.38;;;;;;;;;;5018586;28;20160;-76
2022/04/04 02:22:45;;;;;;;0.77;0.70;;;;;;;;;;5033121;28;20018;-76
2022/04/04 02:25:13;;;;;;;0.57;0.57;;;;;;;;;;5036345;28;20040;-77
2022/04/04 02:27:38;;;;;;;0.20;0.20;;;;;;;;;;5034074;28;20099;-76
2022/04/04 02:30:04;;;;;;;0.03;0.03;;;;;;;;;;5035462;28;20446;-76
2022/04/04 02:32:34;;;;;;;0.30;0.30;;;;;;;;;;5035906;28;20037;-76
2022/04/04 02:35:00;;;;;;;0.05;0.05;;;;;;;;;;5037331;28;20021;-76
2022/04/04 02:37:28;;;;;;;0.00;0.00;;;;;;;;;;5033631;28;20498;-76
2022/04/04 02:39:56;;;;;;;5.38;1.80;;;;;;;;;;5035850;28;20120;-76
2022/04/04 02:42:24;;;;;;;0.00;0.00;;;;;;;;;;5035952;28;20033;-76
2022/04/04 02:44:51;;;;;;;0.05;0.05;;;;;;;;;;5036699;28;20029;-76
2022/04/04 02:47:16;;;;;;;0.00;0.00;;;;;;;;;;5036765;28;20076;-77
2022/04/04 02:49:42;;;;;;;0.10;0.10;;;;;;;;;;5036691;28;20069;-76
2022/04/04 02:52:09;;;;;;;1.63;1.52;;;;;;;;;;5034678;28;20037;-77
2022/04/04 02:54:37;;;;;;;0.20;0.20;;;;;;;;;;5035664;28;20033;-77
2022/04/04 02:57:03;;;;;;;0.00;0.00;;;;;;;;;;5036664;28;20409;-76
2022/04/04 02:59:30;;;;;;;0.10;0.10;;;;;;;;;;5036904;28;20108;-76
2022/04/04 03:01:56;;;;;;;1.20;1.10;;;;;;;;;;5019132;28;20124;-76
2022/04/04 03:04:21;;;;;;;0.47;0.40;;;;;;;;;;5016352;28;20445;-76
2022/04/04 03:06:47;;;;;;;3.33;0.20;;;;;;;;;;5017181;28;20410;-77
2022/04/04 03:09:12;;;;;;;0.65;0.65;;;;;;;;;;5018823;28;20034;-76
2022/04/04 03:11:37;;;;;;;0.43;0.43;;;;;;;;;;5036364;28;20370;-77
2022/04/04 03:14:04;;;;;;;0.82;0.82;;;;;;;;;;5036696;28;20132;-76
2022/04/04 03:16:31;;;;;;;0.20;0.20;;;;;;;;;;5043905;28;20047;-77
2022/04/04 03:18:58;;;;;;;0.65;0.65;;;;;;;;;;5035625;28;20347;-77
2022/04/04 03:21:29;;;;;;;0.65;0.65;;;;;;;;;;5018498;28;20029;-77
2022/04/04 03:23:55;;;;;;;0.10;0.10;;;;;;;;;;5019718;28;20040;-77
2022/04/04 03:26:21;;;;;;;0.00;0.00;;;;;;;;;;5034306;28;20021;-76
2022/04/04 03:28:46;;;;;;;2.45;0.65;;;;;;;;;;5035833;28;20469;-76
2022/04/04 03:31:12;;;;;;;0.45;0.45;;;;;;;;;;5018835;28;20157;-76
2022/04/04 03:33:38;;;;;;;0.25;0.25;;;;;;;;;;5036227;28;20036;-77
2022/04/04 03:36:06;;;;;;;0.40;0.32;;;;;;;;;;5036139;28;20029;-77
2022/04/04 03:38:35;;;;;;;0.43;0.43;;;;;;;;;;5018453;28;20064;-77
2022/04/04 03:41:00;;;;;;;0.03;0.00;;;;;;;;;;5018992;28;20466;-77
2022/04/04 03:43:26;;;;;;;0.20;0.20;;;;;;;;;;5018808;28;20036;-76
2022/04/04 03:45:52;;;;;;;0.10;0.10;;;;;;;;;;5017716;28;20048;-77
2022/04/04 03:48:17;;;;;;;1.20;0.88;;;;;;;;;;5036026;28;20025;-77
2022/04/04 03:50:45;;;;;;;0.10;0.10;;;;;;;;;;5035798;28;20488;-77
2022/04/04 03:53:11;;;;;;;0.00;0.00;;;;;;;;;;5033600;28;20079;-76
2022/04/04 03:55:40;;;;;;;0.00;0.00;;;;;;;;;;5035924;28;20022;-77
2022/04/04 03:58:09;;;;;;;0.08;0.08;;;;;;;;;;5016916;28;20028;-76
2022/04/04 04:00:36;;;;;;;0.00;0.00;;;;;;;;;;5033545;28;20407;-76
2022/04/04 04:03:01;;;;;;;0.22;0.22;;;;;;;;;;5022059;28;20029;-77
2022/04/04 04:05:29;;;;;;;0.08;0.08;;;;;;;;;;5034872;28;20049;-76
2022/04/04 04:07:55;;;;;;;0.30;0.30;;;;;;;;;;5030547;28;20033;-82
2022/04/04 04:10:21;;;;;;;1.63;1.08;;;;;;;;;;5016689;28;20542;-76
2022/04/04 04:12:46;;;;;;;0.57;0.57;;;;;;;;;;5035068;28;20037;-76
2022/04/04 04:15:16;;;;;;;0.08;0.08;;;;;;;;;;5035553;28;20052;-76
2022/04/04 04:17:42;;;;;;;0.30;0.30;;;;;;;;;;5035765;28;20032;-76
2022/04/04 04:20:20;;;;;;;0.50;0.50;;;;;;;;;;5035717;28;20335;-76
2022/04/04 04:22:50;;;;;;;0.00;0.00;;;;;;;;;;5032976;28;20074;-77
2022/04/04 04:25:17;;;;;;;0.70;0.70;;;;;;;;;;5028233;28;20098;-75
2022/04/04 04:27:43;;;;;;;0.88;0.88;;;;;;;;;;5034716;28;20049;-76
2022/04/04 04:30:09;;;;;;;0.30;0.30;;;;;;;;;;5033851;28;20335;-76
2022/04/04 04:32:35;;;;;;;0.80;0.50;;;;;;;;;;5035116;28;20179;-75
2022/04/04 04:35:03;;;;;;;2.85;0.68;;;;;;;;;;5017878;28;20468;-75
2022/04/04 04:37:28;;;;;;;0.55;0.55;;;;;;;;;;5034990;28;20022;-76
2022/04/04 04:39:56;;;;;;;0.47;0.47;;;;;;;;;;5031430;28;20403;-76
2022/04/04 04:42:22;;;;;;;0.85;0.85;;;;;;;;;;5034445;28;20057;-75
2022/04/04 04:44:49;;;;;;;0.13;0.13;;;;;;;;;;5017410;28;20118;-75
2022/04/04 04:47:17;;;;;;;1.00;1.00;;;;;;;;;;5018002;28;20040;-77
2022/04/04 04:49:43;;;;;;;0.30;0.30;;;;;;;;;;5034767;28;20037;-77
2022/04/04 04:52:08;;;;;;;0.22;0.22;;;;;;;;;;5034514;28;20036;-76
2022/04/04 04:54:33;;;;;;;0.20;0.20;;;;;;;;;;5013753;28;20053;-77
2022/04/04 04:56:59;;;;;;;1.27;1.05;;;;;;;;;;5031235;28;20105;-73
2022/04/04 04:59:24;;;;;;;0.60;0.60;;;;;;;;;;5018462;28;20109;-72
2022/04/04 05:01:49;;;;;;;0.20;0.17;;;;;;;;;;5034209;28;20037;-72
2022/04/04 05:04:18;;;;;;;0.00;0.00;;;;;;;;;;5034710;28;20047;-72
2022/04/04 05:06:48;;;;;;;0.10;0.10;;;;;;;;;;5034467;28;20029;-72
2022/04/04 05:09:14;;;;;;;1.10;1.00;;;;;;;;;;5035212;28;20071;-74
2022/04/04 05:11:42;;;;;;;0.00;0.00;;;;;;;;;;5016846;28;20407;-75
2022/04/04 05:14:07;;;;;;;0.28;0.28;;;;;;;;;;5034379;28;20412;-72
2022/04/04 05:16:32;;;;;;;0.15;0.15;;;;;;;;;;5034311;28;20025;-72
2022/04/04 05:18:57;;;;;;;0.00;0.00;;;;;;;;;;5037221;28;20025;-73
2022/04/04 05:21:25;;;;;;;0.75;0.75;;;;;;;;;;5016610;28;20086;-72
2022/04/04 05:23:51;;;;;;;0.32;0.32;;;;;;;;;;5029935;28;20438;-75
2022/04/04 05:26:16;;;;;;;0.43;0.35;;;;;;;;;;5031514;28;20037;-72
2022/04/04 05:28:44;;;;;;;0.30;0.30;;;;;;;;;;5031821;28;20040;-72
2022/04/04 05:31:10;;;;;;;0.57;0.40;;;;;;;;;;5028351;28;20366;-70
2022/04/04 05:33:36;;;;;;;0.32;0.32;;;;;;;;;;5010490;28;20021;-70
2022/04/04 05:36:04;;;;;;;1.17;1.13;;;;;;;;;;5034110;28;20060;-69
2022/04/04 05:38:30;;;;;;;2.08;1.65;;;;;;;;;;5033707;28;20091;-70
2022/04/04 05:41:00;;;;;;;0.38;0.38;;;;;;;;;;5033907;28;20457;-71
2022/04/04 05:43:28;;;;;;;0.32;0.25;;;;;;;;;;5033736;28;20037;-74
2022/04/04 05:45:56;;;;;;;0.88;0.88;;;;;;;;;;5032597;28;20438;-73
2022/04/04 05:48:23;;;;;;;0.43;0.43;;;;;;;;;;5032807;28;20034;-72
2022/04/04 05:50:48;;;;;;;2.42;0.75;;;;;;;;;;5010161;28;20429;-72
2022/04/04 05:53:16;;;;;;;0.43;0.43;;;;;;;;;;5033654;28;20029;-72
2022/04/04 05:55:42;;;;;;;0.47;0.47;;;;;;;;;;5031858;28;20029;-73
2022/04/04 05:58:09;;;;;;;1.75;1.08;;;;;;;;;;5033619;28;20025;-73
2022/04/04 06:00:35;;;;;;;0.35;0.35;;;;;;;;;;5033659;28;20033;-70
2022/04/04 06:03:01;;;;;;;1.30;0.60;;;;;;;;;;5028682;28;20045;-70
2022/04/04 06:05:26;;;;;;;0.22;0.22;;;;;;;;;;5029099;28;20035;-70
2022/04/04 06:07:52;;;;;;;0.47;0.47;;;;;;;;;;5026712;28;20529;-69
2022/04/04 06:10:18;;;;;;;0.55;0.28;;;;;;;;;;5028479;28;20443;-71
2022/04/04 06:12:45;;;;;;;1.13;1.02;;;;;;;;;;5032520;28;20026;-71
2022/04/04 06:15:12;;;;;;;0.90;0.35;;;;;;;;;;5028373;28;20030;-70
2022/04/04 06:17:38;;;;;;;0.93;0.93;;;;;;;;;;5034838;28;20027;-71
2022/04/04 06:20:05;;;;;;;0.77;0.77;;;;;;;;;;5033307;28;20481;-71
2022/04/04 06:22:37;;;;;;;0.17;0.17;;;;;;;;;;5031938;28;20039;-72
2022/04/04 06:25:04;;;;;;;0.10;0.10;;;;;;;;;;5031896;28;20022;-70
2022/04/04 06:27:30;;;;;;;2.17;0.40;;;;;;;;;;5015155;28;20037;-71
2022/04/04 06:29:55;;;;;;;0.35;0.22;;;;;;;;;;5011887;28;20017;-71
2022/04/04 06:32:24;;;;;;;2.58;1.30;;;;;;;;;;5029612;28;20393;-71
2022/04/04 06:34:49;;;;;;;0.20;0.20;;;;;;;;;;5029927;28;20033;-73
2022/04/04 06:37:15;;;;;;;0.30;0.30;;;;;;;;;;5014362;28;20336;-71
2022/04/04 06:39:40;;;;;;;0.03;0.03;;;;;;;;;;5032036;28;20021;-71
2022/04/04 06:42:06;;;;;;;2.67;0.55;;;;;;;;;;5032938;28;20032;-72
2022/04/04 06:44:34;;;;;;;0.40;0.40;;;;;;;;;;5031113;28;20100;-72
2022/04/04 06:46:59;;;;;;;0.43;0.43;;;;;;;;;;5007995;28;20021;-71
2022/04/04 06:49:25;;;;;;;0.25;0.25;;;;;;;;;;5030647;28;20036;-71
2022/04/04 06:51:51;;;;;;;2.22;2.00;;;;;;;;;;5032364;28;20394;-70
2022/04/04 06:54:18;;;;;;;0.90;0.90;;;;;;;;;;5028552;28;20363;-74
2022/04/04 06:56:47;;;;;;;1.00;0.90;;;;;;;;;;5027066;28;20030;-72
2022/04/04 06:59:14;;;;;;;0.35;0.35;;;;;;;;;;5013174;28;20040;-73
2022/04/04 07:01:40;;;;;;;0.10;0.10;;;;;;;;;;5030123;28;20025;-71
2022/04/04 07:04:05;;;;;;;0.60;0.32;;;;;;;;;;5035816;28;20029;-72
2022/04/04 07:06:30;;;;;;;0.98;0.98;;;;;;;;;;5035927;28;20036;-71
2022/04/04 07:08:58;;;;;;;0.63;0.63;;;;;;;;;;5036627;28;20374;-73
2022/04/04 07:11:24;;;;;;;0.10;0.10;;;;;;;;;;5035739;28;20091;-73
2022/04/04 07:13:52;;;;;;;0.55;0.55;;;;;;;;;;5036610;28;20040;-72
2022/04/04 07:16:17;;;;;;;2.60;1.17;;;;;;;;;;5019146;28;20391;-71
2022/04/04 07:18:45;;;;;;;0.20;0.20;;;;;;;;;;5034669;28;20037;-71
2022/04/04 07:21:10;;;;;;;0.47;0.47;;;;;;;;;;5019007;28;20558;-73
2022/04/04 07:23:38;;;;;;;0.57;0.57;;;;;;;;;;5019139;28;20112;-71
2022/04/04 07:26:03;;;;;;;0.60;0.60;;;;;;;;;;5032368;28;20025;-72
2022/04/04 07:28:31;;;;;;;0.35;0.35;;;;;;;;;;5031131;28;20163;-75
2022/04/04 07:30:57;;;;;;;0.00;0.00;;;;;;;;;;5035927;28;20040;-73
2022/04/04 07:33:22;;;;;;;0.10;0.10;;;;;;;;;;5019052;28;20033;-71
2022/04/04 07:35:49;;;;;;;1.05;0.98;;;;;;;;;;5018215;28;20042;-73
2022/04/04 07:38:14;;;;;;;0.20;0.20;;;;;;;;;;5035507;28;20017;-71
2022/04/04 07:40:40;;;;;;;0.30;0.30;;;;;;;;;;5035731;28;20017;-72
2022/04/04 07:43:06;;;;;;;0.65;0.65;;;;;;;;;;5036117;28;20060;-71
2022/04/04 07:45:31;;;;;;;0.10;0.10;;;;;;;;;;5001650;28;20056;-71
2022/04/04 07:48:00;;;;;;;0.75;0.75;;;;;;;;;;5018622;28;20029;-71
2022/04/04 07:50:27;;;;;;;2.90;1.00;;;;;;;;;;5035216;28;20043;-73
2022/04/04 07:52:55;;;;;;;0.28;0.28;;;;;;;;;;5035974;28;20025;-72
2022/04/04 07:55:20;;;;;;;1.23;0.95;;;;;;;;;;5035861;28;20121;-71
2022/04/04 07:57:46;;;;;;;0.22;0.22;;;;;;;;;;5032986;28;20494;-73
2022/04/04 08:00:17;;;;;;;1.13;1.13;;;;;;;;;;5009916;28;20487;-71
2022/04/04 08:02:46;;;;;;;0.00;0.00;;;;;;;;;;5014462;28;20037;-71
2022/04/04 08:05:16;;;;;;;0.55;0.55;;;;;;;;;;5016319;28;20458;-71
2022/04/04 08:07:44;;;;;;;1.30;1.20;;;;;;;;;;5012808;28;20390;-71
2022/04/04 08:10:10;;;;;;;0.75;0.43;;;;;;;;;;5034152;28;20025;-72
2022/04/04 08:12:36;;;;;;;0.93;0.93;;;;;;;;;;5033031;28;20048;-72
2022/04/04 08:15:01;;;;;;;0.63;0.63;;;;;;;;;;5014996;28;20022;-75
2022/04/04 08:17:26;;;;;;;0.65;0.63;;;;;;;;;;5027426;28;20403;-72
2022/04/04 08:19:54;;;;;;;1.75;0.80;;;;;;;;;;5018012;28;20029;-74
2022/04/04 08:22:20;;;;;;;0.55;0.55;;;;;;;;;;5035467;28;20060;-73
2022/04/04 08:24:45;;;;;;;0.60;0.47;;;;;;;;;;5035506;28;20060;-72
2022/04/04 08:27:11;;;;;;;0.50;0.50;;;;;;;;;;5017498;28;20443;-71
2022/04/04 08:29:37;;;;;;;1.25;0.63;;;;;;;;;;5020106;28;20328;-75
2022/04/04 08:32:03;;;;;;;1.13;0.55;;;;;;;;;;5034731;28;20371;-72
2022/04/04 08:34:29;;;;;;;0.50;0.30;;;;;;;;;;5017724;28;20458;-72
2022/04/04 08:36:55;;;;;;;1.23;0.90;;;;;;;;;;5016496;28;20036;-73
2022/04/04 08:39:20;;;;;;;1.45;1.15;;;;;;;;;;5034173;28;20048;-73
2022/04/04 08:41:53;;;;;;;0.52;0.38;;;;;;;;;;5033165;28;20021;-71
2022/04/04 08:44:20;;;;;;;0.10;0.10;;;;;;;;;;5015051;28;20606;-73
2022/04/04 08:46:56;;;;;;;1.17;0.57;;;;;;;;;;5016637;28;20116;-74
2022/04/04 08:49:22;;;;;;;0.13;0.13;;;;;;;;;;5012013;28;20606;-74
2022/04/04 08:51:54;;;;;;;0.00;0.00;;;;;;;;;;5017261;28;20107;-73
2022/04/04 08:54:19;;;;;;;0.10;0.10;;;;;;;;;;5017549;28;20108;-74
2022/04/04 08:56:47;;;;;;;0.35;0.35;;;;;;;;;;5020362;28;20347;-72
2022/04/04 08:59:13;;;;;;;0.17;0.17;;;;;;;;;;5029197;28;20113;-72
2022/04/04 09:01:38;;;;;;;0.47;0.47;;;;;;;;;;5032912;28;20028;-71
2022/04/04 09:04:04;;;;;;;0.22;0.22;;;;;;;;;;5034169;28;20486;-71
2022/04/04 09:06:32;;;;;;;0.70;0.70;;;;;;;;;;5016973;28;20402;-73
2022/04/04 09:09:03;;;;;;;1.27;1.17;;;;;;;;;;5034761;28;20053;-73
2022/04/04 09:11:29;;;;;;;1.27;0.70;;;;;;;;;;5017911;28;20036;-72
2022/04/04 09:14:06;;;;;;;0.28;0.13;;;;;;;;;;5029901;28;20021;-73
2022/04/04 09:16:34;;;;;;;0.10;0.10;;;;;;;;;;5032393;28;20324;-74
2022/04/04 09:19:00;;;;;;;0.10;0.10;;;;;;;;;;5034712;28;20052;-73
2022/04/04 09:21:25;;;;;;;0.90;0.73;;;;;;;;;;5035932;28;20021;-73
2022/04/04 09:23:58;;;;;;;0.15;0.15;;;;;;;;;;5034653;28;20017;-72
2022/04/04 09:26:38;;;;;;;0.57;0.57;;;;;;;;;;5034340;28;20040;-73
2022/04/04 09:29:13;;;;;;;0.85;0.75;;;;;;;;;;5031172;28;20435;-73
2022/04/04 09:32:10;;;;;;;0.25;0.25;;;;;;;;;;5033191;28;20043;-72
2022/04/04 09:35:01;;;;;;;0.57;0.57;;;;;;;;;;5031127;28;20029;-73
2022/04/04 09:37:32;;;;;;;0.40;0.40;;;;;;;;;;5016368;28;20120;-75
2022/04/04 09:40:15;;;;;;;1.60;1.10;;;;;;;;;;5033474;28;20025;-72
2022/04/04 09:42:51;;;;;;;0.10;0.10;;;;;;;;;;5034460;28;20021;-73
2022/04/04 09:45:17;;;;;;;0.20;0.20;;;;;;;;;;5032502;28;20025;-73
2022/04/04 09:48:17;;;;;;;0.35;0.35;;;;;;;;;;5015063;28;20068;-74
2022/04/04 09:50:49;;;;;;;0.20;0.20;;;;;;;;;;5027824;28;20087;-73
2022/04/04 09:53:37;;;;;;;;;;;;;;;;;;5016636;28;20331;-73
2022/04/04 09:56:09;;;;;;;0.43;0.43;;;;;;;;;;5030860;28;20250;-75
2022/04/04 09:58:37;;;;;;;0.40;0.40;;;;;;;;;;5032010;28;20017;-74
2022/04/04 10:01:05;;;;;;;2.78;0.30;;;;;;;;;;5030216;28;20160;-74
2022/04/04 10:03:31;;;;;;;0.20;0.20;;;;;;;;;;5015499;28;20025;-75
2022/04/04 10:06:03;;;;;;;0.20;0.20;;;;;;;;;;5030410;28;20450;-75
2022/04/04 10:08:29;;;;;;;0.08;0.08;;;;;;;;;;5017565;28;20447;-74
2022/04/04 10:10:57;;;;;;;0.93;0.70;;;;;;;;;;5031389;28;20036;-74
2022/04/04 10:13:24;;;;;;;0.17;0.17;;;;;;;;;;5032847;28;20063;-75
2022/04/04 10:16:15;;;;;;;0.50;0.50;;;;;;;;;;5015113;28;20040;-76
2022/04/04 10:18:44;;;;;;;0.75;0.75;;;;;;;;;;4992915;28;20094;-77
2022/04/04 10:21:12;;;;;;;0.25;0.25;;;;;;;;;;5016213;28;20119;-77
2022/04/04 10:23:39;;;;;;;0.03;0.03;;;;;;;;;;5033402;28;20093;-74
2022/04/04 10:26:07;;;;;;;1.08;0.73;;;;;;;;;;5015921;28;20033;-74
2022/04/04 10:28:38;;;;;;;1.00;0.93;;;;;;;;;;5032826;28;20030;-76
2022/04/04 10:31:15;;;;;;;0.38;0.38;;;;;;;;;;5032517;28;20068;-73
2022/04/04 10:33:41;;;;;;;0.10;0.08;;;;;;;;;;5032058;28;20060;-73
2022/04/04 10:36:10;;;;;;;0.57;0.57;;;;;;;;;;5034891;28;20695;-77
2022/04/04 10:38:45;;;;;;;0.30;0.30;;;;;;;;;;5042933;28;20025;-73
2022/04/04 10:41:14;;;;;;;0.57;0.57;;;;;;;;;;5036554;28;20029;-77
2022/04/04 10:43:44;;;;;;;0.20;0.20;;;;;;;;;;5034227;28;20528;-74
2022/04/04 10:46:11;;;;;;;0.30;0.30;;;;;;;;;;5032172;28;20026;-76
2022/04/04 10:48:50;;;;;;;1.00;0.82;;;;;;;;;;5035170;28;20036;-75
2022/04/04 10:51:26;;;;;;;0.65;0.35;;;;;;;;;;5019797;28;20029;-76
2022/04/04 10:53:57;;;;;;;0.20;0.20;;;;;;;;;;5036947;28;20104;-75
2022/04/04 10:56:27;;;;;;;0.35;0.35;;;;;;;;;;5037062;28;20033;-75
2022/04/04 10:59:13;;;;;;;0.65;0.35;;;;;;;;;;5019378;28;20036;-77
2022/04/04 11:01:39;;;;;;;0.43;0.43;;;;;;;;;;5018891;28;20083;-78
2022/04/04 11:04:04;;;;;;;0.55;0.55;;;;;;;;;;5023229;28;20025;-82
2022/04/04 11:09:32;;;;;;;0.52;0.52;;;;;;;;;;5032458;28;20363;-79
2022/04/04 11:12:15;;;;;;;0.80;0.77;;;;;;;;;;5035632;28;20445;-79
2022/04/04 11:14:42;;;;;;;0.10;0.10;;;;;;;;;;5019690;28;20029;-80
2022/04/04 11:17:17;;;;;;;0.43;0.32;;;;;;;;;;5037845;28;20056;-81
2022/04/04 11:20:21;;;;;;;0.30;0.30;;;;;;;;;;5034952;28;20057;-84
2022/04/04 11:22:52;;;;;;;1.95;0.82;;;;;;;;;;5021377;28;20044;-80
2022/04/04 11:25:19;;;;;;;0.50;0.50;;;;;;;;;;5017213;28;20446;-77
2022/04/04 11:27:48;;;;;;;0.22;0.22;;;;;;;;;;4999647;28;20354;-79
2022/04/04 11:30:17;;;;;;;1.30;1.20;;;;;;;;;;5021148;28;20033;-79
2022/04/04 11:32:44;;;;;;;0.20;0.20;;;;;;;;;;4999321;28;20029;-80
2022/04/04 11:35:27;;;;;;;1.77;1.67;;;;;;;;;;5015879;28;20083;-85
2022/04/04 11:38:11;;;;;;;1.23;1.20;;;;;;;;;;5019905;28;20025;-87
2022/04/04 11:40:39;;;;;;;1.35;1.25;;;;;;;;;;5009453;28;20065;-86
2022/04/04 11:43:05;;;;;;;1.35;0.65;;;;;;;;;;5036382;28;20032;-84
2022/04/04 11:45:39;;;;;;;0.93;0.90;;;;;;;;;;5036744;28;20037;-84
2022/04/04 11:48:13;;;;;;;0.25;0.25;;;;;;;;;;5003409;28;20186;-79
2022/04/04 11:50:40;;;;;;;0.60;0.60;;;;;;;;;;5013331;28;20429;-84
2022/04/04 11:53:10;;;;;;;0.43;0.43;;;;;;;;;;5012959;28;20621;-82
2022/04/04 11:55:37;;;;;;;2.25;2.05;;;;;;;;;;5022125;28;20036;-82
2022/04/04 11:58:13;;;;;;;1.88;1.58;;;;;;;;;;5035160;28;20473;-82
2022/04/04 12:00:42;;;;;;;1.25;1.17;;;;;;;;;;4999084;28;20052;-85
2022/04/04 12:03:16;;;;;;;0.13;0.13;;;;;;;;;;5024139;28;20454;-84
2022/04/04 12:08:49;;;;;;;0.45;0.28;;;;;;;;;;5027210;28;20463;-80
2022/04/04 12:11:25;;;;;;;2.42;2.17;;;;;;;;;;5015970;28;20037;-82
2022/04/04 12:13:56;;;;;;;1.30;0.50;;;;;;;;;;5031175;28;20029;-82
2022/04/04 12:16:22;;;;;;;0.28;0.28;;;;;;;;;;5021085;28;20030;-84
2022/04/04 12:18:55;;;;;;;0.73;0.73;;;;;;;;;;5040182;28;20057;-82
2022/04/04 12:21:23;;;;;;;0.10;0.10;;;;;;;;;;5031401;28;20030;-80
2022/04/04 12:26:34;;;;;;;0.40;0.40;;;;;;;;;;5016637;28;20095;-80
2022/04/04 12:28:59;;;;;;;0.10;0.10;;;;;;;;;;5033147;28;20025;-79
2022/04/04 12:31:26;;;;;;;1.98;1.08;;;;;;;;;;5035402;28;20532;-80
2022/04/04 12:34:10;;;;;;;0.32;0.32;;;;;;;;;;5035650;28;20036;-78
2022/04/04 12:36:41;;;;;;;0.28;0.28;;;;;;;;;;5037249;28;20081;-77
2022/04/04 12:39:08;;;;;;;0.77;0.70;;;;;;;;;;5021529;28;20025;-76
2022/04/04 12:41:44;;;;;;;0.85;0.85;;;;;;;;;;5036123;28;20123;-76
2022/04/04 12:44:10;;;;;;;1.58;1.48;;;;;;;;;;5016872;28;20048;-78
2022/04/04 12:46:36;;;;;;;1.42;1.33;;;;;;;;;;5033172;28;20026;-76
2022/04/04 12:49:14;;;;;;;1.85;1.23;;;;;;;;;;5036165;28;20434;-75
2022/04/04 12:51:50;;;;;;;0.82;0.82;;;;;;;;;;5011478;28;20029;-77
2022/04/04 12:54:27;;;;;;;0.40;0.40;;;;;;;;;;5016426;28;20044;-79
2022/04/04 12:56:55;;;;;;;0.30;0.30;;;;;;;;;;5013907;28;20467;-83
2022/04/04 12:59:24;;;;;;;1.02;1.00;;;;;;;;;;5005048;28;20560;-82
2022/04/04 13:02:05;;;;;;;3.95;1.17;;;;;;;;;;5041943;28;20029;-81
2022/04/04 13:04:32;;;;;;;0.40;0.40;;;;;;;;;;5020477;28;20041;-81
2022/04/04 13:07:00;;;;;;;1.10;1.02;;;;;;;;;;5017723;28;20036;-81
2022/04/04 13:09:26;;;;;;;0.93;0.93;;;;;;;;;;5014401;28;20116;-79
2022/04/04 13:11:53;;;;;;;0.28;0.28;;;;;;;;;;5013666;28;20522;-80
2022/04/04 13:14:20;;;;;;;1.40;1.30;;;;;;;;;;5032666;28;20104;-80
2022/04/04 13:17:02;;;;;;;1.60;1.50;;;;;;;;;;5020712;28;20044;-80
2022/04/04 13:19:29;;;;;;;1.73;1.63;;;;;;;;;;5035538;28;20048;-77
2022/04/04 13:21:57;;;;;;;0.50;0.50;;;;;;;;;;5024727;28;20021;-79
2022/04/04 13:24:23;;;;;;;0.20;0.20;;;;;;;;;;5010102;28;20079;-78
2022/04/04 13:26:51;;;;;;;0.40;0.30;;;;;;;;;;5022725;28;20028;-77
2022/04/04 13:29:18;;;;;;;1.20;0.85;;;;;;;;;;5018262;28;20103;-76
2022/04/04 13:31:45;;;;;;;0.40;0.40;;;;;;;;;;5033156;28;20645;-76
2022/04/04 13:34:11;;;;;;;0.65;0.50;;;;;;;;;;5015904;28;20087;-77
2022/04/04 13:36:39;;;;;;;0.88;0.88;;;;;;;;;;5033828;28;20097;-79
2022/04/04 13:39:09;;;;;;;1.08;1.08;;;;;;;;;;5015955;28;20431;-77
2022/04/04 13:41:37;;;;;;;0.28;0.28;;;;;;;;;;5018259;28;20037;-77
2022/04/04 13:44:06;;;;;;;0.35;0.35;;;;;;;;;;5015728;28;20017;-79
2022/04/04 13:46:32;;;;;;;0.60;0.40;;;;;;;;;;5015951;28;20061;-77
2022/04/04 13:48:58;;;;;;;0.47;0.47;;;;;;;;;;5026367;28;20029;-78
2022/04/04 13:51:26;;;;;;;0.20;0.20;;;;;;;;;;5038023;28;20025;-78
2022/04/04 13:53:57;;;;;;;0.77;0.65;;;;;;;;;;5016612;28;20040;-83
2022/04/04 13:56:24;;;;;;;0.75;0.75;;;;;;;;;;5000139;28;20029;-80
2022/04/04 13:58:50;;;;;;;0.47;0.47;;;;;;;;;;5013302;28;20040;-78
2022/04/04 14:01:17;;;;;;;0.55;0.55;;;;;;;;;;5032674;28;20037;-79
2022/04/04 14:03:45;;;;;;;0.38;0.38;;;;;;;;;;5028038;28;20129;-84
2022/04/04 14:06:11;;;;;;;0.20;0.20;;;;;;;;;;5012489;28;20029;-77
2022/04/04 14:08:40;;;;;;;0.10;0.10;;;;;;;;;;5009187;28;20040;-80
2022/04/04 14:11:11;;;;;;;0.85;0.85;;;;;;;;;;5018869;28;20025;-78
2022/04/04 14:13:40;;;;;;;0.55;0.55;;;;;;;;;;5020406;28;20373;-81
2022/04/04 14:16:06;;;;;;;0.73;0.73;;;;;;;;;;5022139;28;20044;-81
2022/04/04 14:18:34;;;;;;;0.25;0.25;;;;;;;;;;5019506;28;20100;-81
2022/04/04 14:21:00;;;;;;;0.88;0.85;;;;;;;;;;5022688;28;20028;-83
2022/04/04 14:23:26;;;;;;;1.23;0.90;;;;;;;;;;5018436;28;20049;-82
2022/04/04 14:25:51;;;;;;;0.68;0.68;;;;;;;;;;5025049;28;20030;-79
2022/04/04 14:28:19;;;;;;;0.60;0.60;;;;;;;;;;5023305;28;20025;-81
2022/04/04 14:30:49;;;;;;;1.10;1.08;;;;;;;;;;5025360;28;20091;-78
2022/04/04 14:33:16;;;;;;;0.35;0.35;;;;;;;;;;5016344;28;20065;-80
2022/04/04 14:35:42;;;;;;;0.10;0.10;;;;;;;;;;5018343;28;20021;-80
2022/04/04 14:38:07;;;;;;;0.63;0.63;;;;;;;;;;5036380;28;20087;-79
2022/04/04 14:40:32;;;;;;;2.80;0.47;;;;;;;;;;5029975;28;20033;-81
2022/04/04 14:42:58;;;;;;;0.32;0.32;;;;;;;;;;5015256;28;20086;-80
2022/04/04 14:45:25;;;;;;;0.32;0.32;;;;;;;;;;5016134;28;20041;-79
2022/04/04 14:47:50;;;;;;;1.25;1.17;;;;;;;;;;5020907;28;20036;-78
2022/04/04 14:50:16;;;;;;;0.30;0.22;;;;;;;;;;5036101;28;20021;-80
2022/04/04 14:52:46;;;;;;;0.65;0.65;;;;;;;;;;5035590;28;20021;-82
2022/04/04 14:55:13;;;;;;;0.40;0.30;;;;;;;;;;5035797;28;20029;-80
2022/04/04 14:57:42;;;;;;;0.52;0.52;;;;;;;;;;5020701;28;20026;-82
2022/04/04 15:00:08;;;;;;;1.65;0.40;;;;;;;;;;5037699;28;20467;-80